Time;durP1;ratioP1;P1;durP2;ratioP2;P2;SDS_P1;SDS_P2;PMS_P1;PMS_P2;Temp;Humidity;BMP_temperature;BMP_pressure;BME280_temperature;BME280_humidity;BME280_pressure;Samples;Min_cycle;Max_cycle;Signal;HPM_P1;HPM_P2
2022/09/05 00:00:06;;;;;;;10.32;5.15;;;;;;;;;;5114373;28;20285;-82
2022/09/05 00:02:35;;;;;;;8.77;4.82;;;;;;;;;;5107330;28;20211;-82
2022/09/05 00:05:09;;;;;;;7.57;5.20;;;;;;;;;;5098764;28;20281;-82
2022/09/05 00:07:40;;;;;;;10.50;5.70;;;;;;;;;;5104566;28;20228;-82
2022/09/05 00:10:13;;;;;;;8.23;5.68;;;;;;;;;;5113936;28;20232;-82
2022/09/05 00:12:40;;;;;;;6.80;5.03;;;;;;;;;;5099421;28;20301;-82
2022/09/05 00:15:15;;;;;;;7.40;5.00;;;;;;;;;;5093408;28;20281;-82
2022/09/05 00:17:47;;;;;;;6.53;4.90;;;;;;;;;;5099013;28;20649;-82
2022/09/05 00:20:17;;;;;;;5.70;4.80;;;;;;;;;;5081027;28;20230;-82
2022/09/05 00:22:48;;;;;;;6.10;5.30;;;;;;;;;;5100916;28;20293;-82
2022/09/05 00:25:22;;;;;;;7.67;5.03;;;;;;;;;;5103556;28;20922;-83
2022/09/05 00:27:52;;;;;;;7.57;4.87;;;;;;;;;;5101296;28;20246;-82
2022/09/05 00:30:21;;;;;;;7.47;4.90;;;;;;;;;;5093528;28;20289;-83
2022/09/05 00:33:00;;;;;;;7.68;5.18;;;;;;;;;;5096239;28;20666;-83
2022/09/05 00:35:41;;;;;;;5.83;5.30;;;;;;;;;;5102516;28;20198;-83
2022/09/05 00:38:13;;;;;;;6.97;5.20;;;;;;;;;;5092912;28;20281;-82
2022/09/05 00:40:41;;;;;;;8.80;5.90;;;;;;;;;;5100484;28;20686;-82
2022/09/05 00:43:11;;;;;;;6.90;5.40;;;;;;;;;;5095436;28;20217;-83
2022/09/05 00:45:42;;;;;;;9.43;5.70;;;;;;;;;;5102318;28;20693;-82
2022/09/05 00:48:15;;;;;;;10.77;6.20;;;;;;;;;;5092074;28;20218;-82
2022/09/05 00:50:55;;;;;;;7.93;5.97;;;;;;;;;;5092328;28;20286;-83
2022/09/05 00:53:26;;;;;;;8.37;5.90;;;;;;;;;;5104916;28;20728;-82
2022/09/05 00:55:58;;;;;;;7.47;6.10;;;;;;;;;;5113140;28;20212;-82
2022/09/05 00:58:34;;;;;;;8.07;5.80;;;;;;;;;;5094442;28;20245;-82
2022/09/05 01:01:06;;;;;;;9.60;6.30;;;;;;;;;;5095341;28;20255;-82
2022/09/05 01:03:40;;;;;;;8.93;5.90;;;;;;;;;;5096398;28;20673;-83
2022/09/05 01:06:18;;;;;;;7.90;5.93;;;;;;;;;;5102666;28;20222;-82
2022/09/05 01:09:11;;;;;;;7.82;6.05;;;;;;;;;;5092549;28;20740;-82
2022/09/05 01:12:01;;;;;;;7.93;5.50;;;;;;;;;;5080332;28;20217;-82
2022/09/05 01:14:45;;;;;;;8.23;6.00;;;;;;;;;;5078824;28;20222;-82
2022/09/05 01:17:20;;;;;;;8.15;5.45;;;;;;;;;;5092873;28;20237;-82
2022/09/05 01:19:59;;;;;;;9.70;6.27;;;;;;;;;;5100986;28;20240;-82
2022/09/05 01:22:51;;;;;;;7.70;5.70;;;;;;;;;;5101202;28;20225;-82
2022/09/05 01:25:28;;;;;;;7.70;6.07;;;;;;;;;;5083439;27;20289;-82
2022/09/05 01:28:00;;;;;;;8.18;6.10;;;;;;;;;;5092668;28;20257;-82
2022/09/05 01:30:31;;;;;;;6.90;5.70;;;;;;;;;;5100587;28;20205;-82
2022/09/05 01:33:01;;;;;;;9.10;6.60;;;;;;;;;;5092550;28;20222;-82
2022/09/05 01:35:46;;;;;;;7.05;6.05;;;;;;;;;;5093726;28;20228;-82
2022/09/05 01:38:17;;;;;;;10.18;6.38;;;;;;;;;;5093452;28;20285;-81
2022/09/05 01:40:48;;;;;;;11.33;6.97;;;;;;;;;;5091281;28;20281;-81
2022/09/05 01:43:22;;;;;;;8.40;6.70;;;;;;;;;;5091986;28;20233;-82
2022/09/05 01:45:51;;;;;;;6.73;5.87;;;;;;;;;;5101063;28;20190;-82
2022/09/05 01:48:32;;;;;;;8.87;6.37;;;;;;;;;;5110624;28;20312;-81
2022/09/05 01:51:10;;;;;;;6.70;6.03;;;;;;;;;;5112054;28;20284;-81
2022/09/05 01:53:42;;;;;;;7.90;6.23;;;;;;;;;;5106609;28;20226;-81
2022/09/05 01:56:30;;;;;;;7.05;6.35;;;;;;;;;;5091741;28;20202;-82
2022/09/05 01:59:04;;;;;;;9.67;6.43;;;;;;;;;;5094936;28;20725;-82
2022/09/05 02:01:35;;;;;;;8.03;5.70;;;;;;;;;;5098344;28;20276;-81
2022/09/05 02:04:20;;;;;;;8.73;6.20;;;;;;;;;;5091578;28;20290;-81
2022/09/05 02:06:54;;;;;;;7.30;5.85;;;;;;;;;;5097327;28;20264;-81
2022/09/05 02:09:30;;;;;;;10.70;5.97;;;;;;;;;;5091353;28;20684;-81
2022/09/05 02:11:58;;;;;;;9.43;5.72;;;;;;;;;;5099130;28;20237;-81
2022/09/05 02:14:32;;;;;;;10.43;6.07;;;;;;;;;;5091740;28;20281;-81
2022/09/05 02:17:07;;;;;;;7.75;5.70;;;;;;;;;;5091399;28;20277;-82
2022/09/05 02:19:41;;;;;;;7.35;6.07;;;;;;;;;;5092035;28;20226;-82
2022/09/05 02:22:11;;;;;;;9.43;6.35;;;;;;;;;;5098939;28;20289;-81
2022/09/05 02:24:42;;;;;;;7.10;6.40;;;;;;;;;;5091419;28;20230;-82
2022/09/05 02:27:14;;;;;;;8.30;6.20;;;;;;;;;;5099764;28;20252;-81
2022/09/05 02:29:45;;;;;;;8.90;6.53;;;;;;;;;;5112118;28;20233;-82
2022/09/05 02:32:15;;;;;;;9.17;6.50;;;;;;;;;;5109377;28;20273;-82
2022/09/05 02:34:46;;;;;;;7.43;6.60;;;;;;;;;;5079428;28;20225;-81
2022/09/05 02:37:18;;;;;;;9.50;7.80;;;;;;;;;;5079302;28;20901;-81
2022/09/05 02:39:47;;;;;;;9.27;7.00;;;;;;;;;;5098937;28;20290;-81
2022/09/05 02:42:20;;;;;;;9.67;7.20;;;;;;;;;;5098726;28;20225;-82
2022/09/05 02:44:56;;;;;;;9.93;7.07;;;;;;;;;;5109275;28;20198;-82
2022/09/05 02:47:26;;;;;;;8.53;7.43;;;;;;;;;;5088129;28;20305;-81
2022/09/05 02:49:58;;;;;;;8.20;7.00;;;;;;;;;;5093528;28;20234;-81
2022/09/05 02:52:25;;;;;;;10.47;8.07;;;;;;;;;;5096159;28;20205;-82
2022/09/05 02:54:54;;;;;;;9.10;7.97;;;;;;;;;;5104304;28;20212;-82
2022/09/05 02:57:31;;;;;;;9.63;7.73;;;;;;;;;;5106412;28;20226;-82
2022/09/05 03:00:08;;;;;;;11.88;8.40;;;;;;;;;;5095617;28;20641;-81
2022/09/05 03:02:41;;;;;;;11.97;8.10;;;;;;;;;;5110341;28;20248;-81
2022/09/05 03:05:11;;;;;;;9.55;8.30;;;;;;;;;;5094557;28;20289;-82
2022/09/05 03:07:54;;;;;;;12.47;8.53;;;;;;;;;;5108971;28;20217;-82
2022/09/05 03:10:26;;;;;;;9.97;7.67;;;;;;;;;;5114739;28;20233;-81
2022/09/05 03:13:24;;;;;;;11.93;8.47;;;;;;;;;;5091437;28;20234;-81
2022/09/05 03:16:09;;;;;;;9.70;7.80;;;;;;;;;;5094086;28;20234;-81
2022/09/05 03:18:57;;;;;;;11.60;7.87;;;;;;;;;;5103847;28;20225;-82
2022/09/05 03:21:40;;;;;;;10.37;8.00;;;;;;;;;;5013756;28;20301;-82
2022/09/05 03:24:40;;;;;;;10.77;8.10;;;;;;;;;;5006448;28;20211;-81
2022/09/05 03:27:21;;;;;;;9.03;7.97;;;;;;;;;;5031762;28;20323;-81
2022/09/05 03:30:07;;;;;;;11.13;7.90;;;;;;;;;;5025585;28;20870;-81
2022/09/05 03:32:52;;;;;;;9.82;7.82;;;;;;;;;;5014750;28;20208;-82
2022/09/05 03:35:37;;;;;;;11.43;7.83;;;;;;;;;;5019424;28;20798;-81
2022/09/05 03:38:34;;;;;;;11.68;8.30;;;;;;;;;;5013570;28;20205;-82
2022/09/05 03:41:15;;;;;;;11.43;7.67;;;;;;;;;;4963595;28;20784;-82
2022/09/05 03:44:14;;;;;;;8.73;7.83;;;;;;;;;;5109090;27;20572;-81
2022/09/05 03:46:56;;;;;;;9.73;8.40;;;;;;;;;;5108048;28;20217;-81
2022/09/05 03:49:29;;;;;;;16.40;9.53;;;;;;;;;;5101777;28;20236;-82
2022/09/05 03:52:01;;;;;;;10.18;8.27;;;;;;;;;;5109126;28;20229;-82
2022/09/05 03:54:46;;;;;;;11.67;8.23;;;;;;;;;;5109302;28;20225;-81
2022/09/05 03:57:22;;;;;;;11.70;8.37;;;;;;;;;;5104237;28;20305;-82
2022/09/05 04:00:08;;;;;;;11.57;8.40;;;;;;;;;;5079461;28;20234;-82
2022/09/05 04:02:36;;;;;;;11.83;8.20;;;;;;;;;;5076958;28;20215;-82
2022/09/05 04:05:09;;;;;;;11.63;8.87;;;;;;;;;;5068994;28;20608;-82
2022/09/05 04:07:40;;;;;;;12.50;8.43;;;;;;;;;;5068384;28;20256;-81
2022/09/05 04:10:10;;;;;;;13.20;8.60;;;;;;;;;;5069514;28;20230;-81
2022/09/05 04:12:47;;;;;;;13.47;8.40;;;;;;;;;;5073774;28;20186;-82
2022/09/05 04:15:16;;;;;;;9.10;8.10;;;;;;;;;;5072668;28;20244;-82
2022/09/05 04:17:44;;;;;;;12.33;7.97;;;;;;;;;;5085392;28;20195;-82
2022/09/05 04:20:16;;;;;;;10.20;8.00;;;;;;;;;;5088716;28;20234;-82
2022/09/05 04:22:59;;;;;;;13.23;8.60;;;;;;;;;;5086414;28;20219;-82
2022/09/05 04:25:31;;;;;;;12.67;8.50;;;;;;;;;;5088461;28;20648;-82
2022/09/05 04:28:15;;;;;;;12.23;9.67;;;;;;;;;;5088476;28;20276;-81
2022/09/05 04:30:46;;;;;;;13.00;8.90;;;;;;;;;;5088649;28;20194;-81
2022/09/05 04:33:19;;;;;;;12.07;9.23;;;;;;;;;;5067814;28;20766;-81
2022/09/05 04:35:53;;;;;;;11.83;9.13;;;;;;;;;;5079726;28;20213;-81
2022/09/05 04:38:35;;;;;;;12.97;9.40;;;;;;;;;;5087811;28;20225;-81
2022/09/05 04:41:04;;;;;;;13.47;9.80;;;;;;;;;;5073530;28;20205;-81
2022/09/05 04:43:35;;;;;;;13.33;9.57;;;;;;;;;;5068238;28;20698;-81
2022/09/05 04:46:08;;;;;;;12.73;9.90;;;;;;;;;;5079915;28;20666;-82
2022/09/05 04:48:36;;;;;;;11.33;9.83;;;;;;;;;;5071504;28;20234;-82
2022/09/05 04:51:07;;;;;;;13.87;10.20;;;;;;;;;;5088434;28;20568;-82
2022/09/05 04:53:39;;;;;;;12.77;9.80;;;;;;;;;;5081511;28;20629;-81
2022/09/05 04:56:10;;;;;;;11.97;9.70;;;;;;;;;;5056608;28;20206;-81
2022/09/05 04:58:39;;;;;;;12.10;9.50;;;;;;;;;;5061905;28;20258;-82
2022/09/05 05:01:09;;;;;;;10.80;9.27;;;;;;;;;;5062228;28;20235;-81
2022/09/05 05:03:37;;;;;;;14.13;11.17;;;;;;;;;;5070235;28;20307;-82
2022/09/05 05:06:08;;;;;;;13.13;10.00;;;;;;;;;;5073303;28;20238;-81
2022/09/05 05:08:40;;;;;;;14.07;10.23;;;;;;;;;;5070228;28;20213;-81
2022/09/05 05:11:09;;;;;;;11.30;10.03;;;;;;;;;;5065116;28;20660;-81
2022/09/05 05:13:38;;;;;;;15.27;9.57;;;;;;;;;;5068959;28;20264;-82
2022/09/05 05:16:07;;;;;;;11.27;9.23;;;;;;;;;;5062286;28;20235;-81
2022/09/05 05:18:35;;;;;;;13.17;9.60;;;;;;;;;;5066695;28;20254;-81
2022/09/05 05:21:04;;;;;;;12.17;9.50;;;;;;;;;;5062626;28;20249;-80
2022/09/05 05:23:35;;;;;;;13.30;10.73;;;;;;;;;;5073392;28;20389;-81
2022/09/05 05:26:04;;;;;;;13.80;10.27;;;;;;;;;;5072990;28;20282;-81
2022/09/05 05:28:40;;;;;;;14.33;9.87;;;;;;;;;;5071483;28;20226;-81
2022/09/05 05:31:13;;;;;;;11.87;10.20;;;;;;;;;;5060898;28;20199;-79
2022/09/05 05:33:41;;;;;;;15.73;11.63;;;;;;;;;;5070069;28;20231;-82
2022/09/05 05:36:10;;;;;;;13.63;11.60;;;;;;;;;;5063107;28;20294;-82
2022/09/05 05:38:44;;;;;;;15.10;10.60;;;;;;;;;;5068863;28;20238;-82
2022/09/05 05:41:17;;;;;;;16.60;11.43;;;;;;;;;;5056614;28;20204;-82
2022/09/05 05:43:46;;;;;;;14.33;11.33;;;;;;;;;;5069612;28;20326;-80
2022/09/05 05:46:15;;;;;;;15.10;11.80;;;;;;;;;;5063974;28;20196;-81
2022/09/05 05:48:45;;;;;;;15.40;10.63;;;;;;;;;;5056499;28;20206;-81
2022/09/05 05:51:18;;;;;;;12.07;10.90;;;;;;;;;;5053473;28;20239;-81
2022/09/05 05:53:52;;;;;;;16.23;11.70;;;;;;;;;;5053449;28;20230;-81
2022/09/05 05:56:29;;;;;;;13.23;11.50;;;;;;;;;;5052895;28;20294;-82
2022/09/05 05:59:02;;;;;;;13.50;11.73;;;;;;;;;;5052087;28;20365;-81
2022/09/05 06:01:50;;;;;;;14.07;11.07;;;;;;;;;;5054834;28;20199;-81
2022/09/05 06:04:36;;;;;;;15.50;10.90;;;;;;;;;;5067033;28;20262;-81
2022/09/05 06:07:08;;;;;;;13.87;10.97;;;;;;;;;;5071694;28;20225;-81
2022/09/05 06:09:51;;;;;;;13.73;10.93;;;;;;;;;;5071239;28;20294;-81
2022/09/05 06:12:39;;;;;;;12.57;11.27;;;;;;;;;;5057363;28;20231;-81
2022/09/05 06:15:31;;;;;;;14.50;11.40;;;;;;;;;;5011078;28;20792;-81
2022/09/05 06:18:14;;;;;;;12.43;10.18;;;;;;;;;;5001640;28;20201;-82
2022/09/05 06:20:59;;;;;;;11.98;10.77;;;;;;;;;;5010666;28;20201;-81
2022/09/05 06:23:41;;;;;;;12.38;10.38;;;;;;;;;;5011308;28;20316;-82
2022/09/05 06:26:17;;;;;;;14.00;10.15;;;;;;;;;;5003562;28;20240;-82
2022/09/05 06:28:53;;;;;;;16.10;10.43;;;;;;;;;;5010918;28;20271;-81
2022/09/05 06:31:29;;;;;;;14.48;10.48;;;;;;;;;;5011041;28;20205;-82
2022/09/05 06:34:02;;;;;;;14.70;9.70;;;;;;;;;;4994795;28;20197;-81
2022/09/05 06:36:42;;;;;;;14.50;10.00;;;;;;;;;;5010748;28;20311;-81
2022/09/05 06:39:13;;;;;;;13.68;9.48;;;;;;;;;;5011065;28;20234;-81
2022/09/05 06:41:45;;;;;;;12.65;8.60;;;;;;;;;;5010889;28;20287;-81
2022/09/05 06:44:30;;;;;;;13.15;8.80;;;;;;;;;;5010921;28;20256;-81
2022/09/05 06:46:59;;;;;;;11.82;7.93;;;;;;;;;;5004257;28;20205;-82
2022/09/05 06:49:27;;;;;;;14.40;7.97;;;;;;;;;;5010999;28;20300;-81
2022/09/05 06:52:12;;;;;;;16.70;8.20;;;;;;;;;;5036386;28;20286;-81
2022/09/05 06:54:55;;;;;;;10.95;7.65;;;;;;;;;;5072648;28;20191;-81
2022/09/05 06:57:37;;;;;;;7.78;6.70;;;;;;;;;;5072504;28;20248;-82
2022/09/05 07:00:07;;;;;;;7.43;5.30;;;;;;;;;;5072023;28;20245;-82
2022/09/05 07:02:36;;;;;;;7.10;5.32;;;;;;;;;;5072612;28;20241;-82
2022/09/05 07:05:12;;;;;;;6.82;5.18;;;;;;;;;;5070916;28;20203;-82
2022/09/05 07:07:43;;;;;;;5.85;5.22;;;;;;;;;;5065679;28;20281;-82
2022/09/05 07:10:16;;;;;;;9.55;5.30;;;;;;;;;;5072248;28;20272;-82
2022/09/05 07:12:46;;;;;;;6.80;5.38;;;;;;;;;;5072186;28;20230;-82
2022/09/05 07:15:15;;;;;;;6.63;5.50;;;;;;;;;;5072271;28;20705;-82
2022/09/05 07:17:46;;;;;;;8.80;6.25;;;;;;;;;;5053036;28;20286;-82
2022/09/05 07:20:18;;;;;;;10.27;5.72;;;;;;;;;;5052286;28;20238;-82
2022/09/05 07:22:50;;;;;;;8.35;5.75;;;;;;;;;;5063512;28;20286;-82
2022/09/05 07:25:19;;;;;;;8.60;5.53;;;;;;;;;;5071775;28;20231;-82
2022/09/05 07:27:51;;;;;;;6.60;5.50;;;;;;;;;;5071981;28;20245;-82
2022/09/05 07:30:18;;;;;;;8.63;5.70;;;;;;;;;;5054175;28;20290;-81
2022/09/05 07:32:48;;;;;;;7.72;5.30;;;;;;;;;;5052250;28;20687;-82
2022/09/05 07:35:18;;;;;;;8.63;5.00;;;;;;;;;;5052047;28;20232;-82
2022/09/05 07:37:46;;;;;;;6.90;5.43;;;;;;;;;;5052259;28;20258;-82
2022/09/05 07:40:15;;;;;;;6.00;5.00;;;;;;;;;;5065029;28;20234;-81
2022/09/05 07:42:45;;;;;;;5.53;5.00;;;;;;;;;;5071840;28;20322;-81
2022/09/05 07:45:15;;;;;;;7.18;4.88;;;;;;;;;;5071569;28;20203;-82
2022/09/05 07:47:47;;;;;;;6.53;5.00;;;;;;;;;;5072314;28;20248;-82
2022/09/05 07:50:15;;;;;;;9.15;4.90;;;;;;;;;;5070701;28;20227;-82
2022/09/05 07:52:44;;;;;;;7.93;4.82;;;;;;;;;;5068508;28;20238;-82
2022/09/05 07:55:19;;;;;;;6.70;4.30;;;;;;;;;;5071969;28;20195;-82
2022/09/05 07:57:46;;;;;;;6.63;4.50;;;;;;;;;;5056613;28;20261;-82
2022/09/05 08:00:19;;;;;;;6.15;4.28;;;;;;;;;;5051551;28;20635;-82
2022/09/05 08:02:46;;;;;;;7.25;4.10;;;;;;;;;;5051921;28;20242;-82
2022/09/05 08:05:15;;;;;;;5.38;3.50;;;;;;;;;;5051821;28;20774;-82
2022/09/05 08:07:45;;;;;;;6.88;3.75;;;;;;;;;;5055703;28;20239;-82
2022/09/05 08:10:15;;;;;;;5.78;3.80;;;;;;;;;;5071987;28;20195;-82
2022/09/05 08:12:46;;;;;;;7.82;4.38;;;;;;;;;;5069483;28;20195;-82
2022/09/05 08:15:17;;;;;;;5.60;3.67;;;;;;;;;;5071504;28;20199;-82
2022/09/05 08:17:49;;;;;;;5.45;3.53;;;;;;;;;;5070257;28;20257;-82
2022/09/05 08:20:25;;;;;;;8.48;3.78;;;;;;;;;;5071576;28;20613;-82
2022/09/05 08:22:57;;;;;;;4.20;3.50;;;;;;;;;;5068589;28;20242;-82
2022/09/05 08:25:28;;;;;;;5.30;3.53;;;;;;;;;;5053987;28;20192;-82
2022/09/05 08:28:05;;;;;;;4.72;3.30;;;;;;;;;;5061720;28;20208;-82
2022/09/05 08:30:33;;;;;;;6.05;3.05;;;;;;;;;;5066498;28;20266;-82
2022/09/05 08:33:05;;;;;;;3.22;2.65;;;;;;;;;;5066841;28;20234;-82
2022/09/05 08:35:37;;;;;;;6.88;3.00;;;;;;;;;;5074383;28;20227;-82
2022/09/05 08:38:05;;;;;;;3.70;2.47;;;;;;;;;;5072314;28;20199;-82
2022/09/05 08:40:35;;;;;;;4.60;2.30;;;;;;;;;;5065014;28;20273;-83
2022/09/05 08:43:06;;;;;;;4.82;2.38;;;;;;;;;;5060746;28;20278;-82
2022/09/05 08:45:37;;;;;;;4.22;2.17;;;;;;;;;;5067912;28;20279;-83
2022/09/05 08:48:12;;;;;;;3.08;1.80;;;;;;;;;;5070668;28;20206;-83
2022/09/05 08:50:45;;;;;;;3.08;2.03;;;;;;;;;;5072318;28;20233;-83
2022/09/05 08:53:15;;;;;;;5.20;2.00;;;;;;;;;;5056398;28;20196;-83
2022/09/05 08:55:47;;;;;;;4.55;2.00;;;;;;;;;;5067521;28;20253;-83
2022/09/05 08:58:29;;;;;;;3.15;1.67;;;;;;;;;;5072960;28;20219;-83
2022/09/05 09:01:02;;;;;;;3.08;1.60;;;;;;;;;;5056858;28;20235;-83
2022/09/05 09:03:37;;;;;;;2.75;1.80;;;;;;;;;;5074841;28;20254;-83
2022/09/05 09:06:18;;;;;;;2.45;1.73;;;;;;;;;;5074817;28;20194;-82
2022/09/05 09:08:59;;;;;;;5.20;2.15;;;;;;;;;;5074542;28;20203;-83
2022/09/05 09:11:33;;;;;;;3.50;2.10;;;;;;;;;;5070581;28;20278;-82
2022/09/05 09:14:15;;;;;;;3.45;2.20;;;;;;;;;;5054660;28;20200;-82
2022/09/05 09:16:51;;;;;;;3.90;2.47;;;;;;;;;;5054326;28;20628;-82
2022/09/05 09:19:22;;;;;;;2.78;2.22;;;;;;;;;;5060733;28;20670;-82
2022/09/05 09:21:57;;;;;;;5.88;2.70;;;;;;;;;;5054052;28;20287;-82
2022/09/05 09:24:31;;;;;;;5.50;2.58;;;;;;;;;;5053824;28;20258;-82
2022/09/05 09:27:00;;;;;;;3.60;2.03;;;;;;;;;;5054746;28;20199;-82
2022/09/05 09:29:28;;;;;;;3.75;1.95;;;;;;;;;;5063663;28;20618;-82
2022/09/05 09:32:08;;;;;;;3.53;1.90;;;;;;;;;;5074646;28;20258;-82
2022/09/05 09:34:48;;;;;;;4.38;1.90;;;;;;;;;;5073835;28;20199;-82
2022/09/05 09:37:45;;;;;;;3.30;1.83;;;;;;;;;;5074033;28;20561;-82
2022/09/05 09:40:27;;;;;;;3.67;1.75;;;;;;;;;;5073674;28;20754;-81
2022/09/05 09:43:00;;;;;;;4.63;1.92;;;;;;;;;;5071233;28;20295;-82
2022/09/05 09:45:40;;;;;;;6.55;2.63;;;;;;;;;;5072063;28;20223;-82
2022/09/05 09:48:30;;;;;;;3.85;1.95;;;;;;;;;;5074405;28;20674;-82
2022/09/05 09:51:12;;;;;;;2.70;1.85;;;;;;;;;;5062800;28;20234;-82
2022/09/05 09:53:43;;;;;;;3.78;2.03;;;;;;;;;;5073293;28;20644;-82
2022/09/05 09:56:29;;;;;;;2.85;1.88;;;;;;;;;;5076202;28;20291;-82
2022/09/05 09:59:11;;;;;;;2.35;1.90;;;;;;;;;;5069844;28;20219;-83
2022/09/05 10:01:51;;;;;;;3.55;1.90;;;;;;;;;;5058639;28;20298;-83
2022/09/05 10:04:32;;;;;;;3.30;1.90;;;;;;;;;;5092947;28;20218;-82
2022/09/05 10:07:12;;;;;;;3.33;1.70;;;;;;;;;;5074417;28;20255;-82
2022/09/05 10:09:46;;;;;;;4.65;1.80;;;;;;;;;;5052119;28;20243;-83
2022/09/05 10:12:26;;;;;;;2.80;1.80;;;;;;;;;;5055361;28;20238;-82
2022/09/05 10:14:59;;;;;;;4.57;2.00;;;;;;;;;;5058088;28;20231;-82
2022/09/05 10:17:37;;;;;;;4.28;1.75;;;;;;;;;;5057433;28;20203;-83
2022/09/05 10:20:25;;;;;;;3.92;1.90;;;;;;;;;;5066386;28;20611;-82
2022/09/05 10:23:01;;;;;;;3.47;1.90;;;;;;;;;;5011029;28;20255;-82
2022/09/05 10:25:42;;;;;;;3.47;2.10;;;;;;;;;;5025737;28;20217;-82
2022/09/05 10:28:14;;;;;;;4.22;2.00;;;;;;;;;;5016505;28;20205;-82
2022/09/05 10:30:46;;;;;;;4.85;2.10;;;;;;;;;;5012639;28;20296;-82
2022/09/05 10:33:37;;;;;;;3.78;2.03;;;;;;;;;;5013314;28;20228;-82
2022/09/05 10:36:12;;;;;;;3.42;2.20;;;;;;;;;;5002882;28;20201;-82
2022/09/05 10:38:44;;;;;;;5.50;2.08;;;;;;;;;;5014418;28;20288;-82
2022/09/05 10:41:12;;;;;;;2.72;1.77;;;;;;;;;;5026183;28;20240;-81
2022/09/05 10:43:47;;;;;;;3.40;1.67;;;;;;;;;;5030119;28;20678;-82
2022/09/05 10:46:21;;;;;;;2.58;1.75;;;;;;;;;;5029938;28;20196;-82
2022/09/05 10:48:49;;;;;;;3.75;1.80;;;;;;;;;;5029706;28;20294;-81
2022/09/05 10:51:18;;;;;;;3.88;1.77;;;;;;;;;;5013369;28;20196;-81
2022/09/05 10:53:52;;;;;;;3.63;1.33;;;;;;;;;;5023089;28;20200;-81
2022/09/05 10:56:21;;;;;;;4.13;1.58;;;;;;;;;;5019595;28;21617;-81
2022/09/05 10:59:00;;;;;;;2.63;1.45;;;;;;;;;;5038581;28;20730;-81
2022/09/05 11:01:32;;;;;;;3.60;1.70;;;;;;;;;;5093070;28;20241;-81
2022/09/05 11:04:07;;;;;;;3.63;1.73;;;;;;;;;;5081966;28;20199;-81
2022/09/05 11:06:49;;;;;;;6.18;1.55;;;;;;;;;;5072039;28;20240;-81
2022/09/05 11:09:23;;;;;;;4.10;1.45;;;;;;;;;;5072167;28;20238;-81
2022/09/05 11:11:56;;;;;;;2.80;1.65;;;;;;;;;;5072524;28;20584;-81
2022/09/05 11:14:34;;;;;;;2.97;1.80;;;;;;;;;;5071906;28;20244;-81
2022/09/05 11:17:05;;;;;;;4.35;2.00;;;;;;;;;;5072441;28;20203;-81
2022/09/05 11:19:39;;;;;;;2.53;1.70;;;;;;;;;;5071323;28;20272;-81
2022/09/05 11:22:07;;;;;;;4.70;1.77;;;;;;;;;;5071677;28;20242;-81
2022/09/05 11:24:38;;;;;;;2.67;1.73;;;;;;;;;;5072145;28;20314;-81
2022/09/05 11:27:07;;;;;;;4.65;1.80;;;;;;;;;;5072227;28;20199;-81
2022/09/05 11:29:36;;;;;;;5.28;2.03;;;;;;;;;;5071882;28;20665;-81
2022/09/05 11:32:22;;;;;;;2.92;1.42;;;;;;;;;;5072042;28;20764;-81
2022/09/05 11:35:05;;;;;;;2.78;1.60;;;;;;;;;;5071820;28;20233;-81
2022/09/05 11:37:48;;;;;;;5.97;1.73;;;;;;;;;;5070048;28;20202;-82
2022/09/05 11:40:24;;;;;;;4.43;1.70;;;;;;;;;;5071942;28;20666;-81
2022/09/05 11:43:00;;;;;;;4.57;1.80;;;;;;;;;;5053901;28;20284;-82
2022/09/05 11:45:40;;;;;;;3.35;1.80;;;;;;;;;;5051513;28;20277;-82
2022/09/05 11:48:20;;;;;;;3.22;1.50;;;;;;;;;;5052462;28;20368;-81
2022/09/05 11:51:02;;;;;;;4.22;1.90;;;;;;;;;;5068584;28;20870;-82
2022/09/05 11:53:45;;;;;;;6.00;2.05;;;;;;;;;;5071767;28;20199;-82
2022/09/05 11:56:36;;;;;;;7.45;2.10;;;;;;;;;;5071510;28;20616;-81
2022/09/05 11:59:14;;;;;;;3.63;2.00;;;;;;;;;;5051091;28;20222;-81
2022/09/05 12:01:48;;;;;;;3.25;1.70;;;;;;;;;;5059673;28;20231;-81
2022/09/05 12:04:19;;;;;;;3.95;1.88;;;;;;;;;;5072335;28;20202;-81
2022/09/05 12:07:06;;;;;;;8.10;2.25;;;;;;;;;;5056745;28;20253;-82
2022/09/05 12:09:47;;;;;;;4.35;2.00;;;;;;;;;;5055902;28;20203;-82
2022/09/05 12:12:25;;;;;;;3.55;1.98;;;;;;;;;;5056244;28;20231;-82
2022/09/05 12:15:01;;;;;;;4.90;1.80;;;;;;;;;;5055546;28;20199;-82
2022/09/05 12:17:32;;;;;;;3.55;1.70;;;;;;;;;;5055641;28;20195;-82
2022/09/05 12:20:04;;;;;;;3.38;1.90;;;;;;;;;;5055249;28;20199;-82
2022/09/05 12:22:34;;;;;;;2.78;1.60;;;;;;;;;;5067238;28;20769;-82
2022/09/05 12:25:19;;;;;;;2.72;1.60;;;;;;;;;;5075830;28;20230;-82
2022/09/05 12:27:48;;;;;;;3.17;1.73;;;;;;;;;;5075390;28;20290;-82
2022/09/05 12:30:22;;;;;;;3.70;1.60;;;;;;;;;;5061426;28;20207;-82
2022/09/05 12:32:50;;;;;;;5.10;1.70;;;;;;;;;;5060589;28;20229;-81
2022/09/05 12:35:30;;;;;;;2.40;1.60;;;;;;;;;;5075775;28;20245;-82
2022/09/05 12:38:01;;;;;;;2.75;1.50;;;;;;;;;;5075595;28;20202;-82
2022/09/05 12:40:30;;;;;;;4.78;1.80;;;;;;;;;;5075637;28;20207;-82
2022/09/05 12:43:00;;;;;;;3.40;1.80;;;;;;;;;;5075006;28;20691;-82
2022/09/05 12:45:32;;;;;;;3.05;1.85;;;;;;;;;;5075873;28;20309;-83
2022/09/05 12:48:03;;;;;;;3.97;1.70;;;;;;;;;;5074411;28;20594;-82
2022/09/05 12:50:34;;;;;;;2.47;1.70;;;;;;;;;;5075172;28;20230;-82
2022/09/05 12:53:05;;;;;;;3.35;1.50;;;;;;;;;;5075189;28;20264;-82
2022/09/05 12:55:35;;;;;;;3.30;1.55;;;;;;;;;;5075348;28;20199;-82
2022/09/05 12:58:03;;;;;;;2.35;1.60;;;;;;;;;;5074725;28;20223;-82
2022/09/05 13:00:41;;;;;;;1.85;1.45;;;;;;;;;;5074868;28;20238;-82
2022/09/05 13:03:09;;;;;;;2.38;1.40;;;;;;;;;;5074094;28;20199;-82
2022/09/05 13:05:46;;;;;;;3.40;1.60;;;;;;;;;;5074828;28;20222;-82
2022/09/05 13:08:20;;;;;;;2.67;1.70;;;;;;;;;;5074677;28;20226;-82
2022/09/05 13:10:50;;;;;;;3.88;1.48;;;;;;;;;;5074606;28;20253;-82
2022/09/05 13:13:23;;;;;;;3.25;1.60;;;;;;;;;;5074795;28;20231;-82
2022/09/05 13:15:53;;;;;;;2.28;1.55;;;;;;;;;;5074366;28;20282;-82
2022/09/05 13:18:23;;;;;;;2.95;1.42;;;;;;;;;;5074471;28;20227;-82
2022/09/05 13:21:01;;;;;;;2.17;1.55;;;;;;;;;;5059079;28;20230;-82
2022/09/05 13:23:31;;;;;;;3.15;1.85;;;;;;;;;;5074560;28;20655;-83
2022/09/05 13:26:03;;;;;;;3.00;1.60;;;;;;;;;;5073481;28;20223;-83
2022/09/05 13:28:34;;;;;;;3.25;1.60;;;;;;;;;;5072165;28;20199;-82
2022/09/05 13:31:07;;;;;;;3.17;1.60;;;;;;;;;;5054342;28;20285;-83
2022/09/05 13:33:43;;;;;;;2.22;1.45;;;;;;;;;;5054237;28;20723;-83
2022/09/05 13:36:11;;;;;;;4.53;1.77;;;;;;;;;;5054334;28;20287;-82
2022/09/05 13:38:47;;;;;;;3.05;1.80;;;;;;;;;;5054865;28;20204;-83
2022/09/05 13:41:20;;;;;;;2.47;1.60;;;;;;;;;;5059123;28;20233;-83
2022/09/05 13:43:48;;;;;;;3.10;1.60;;;;;;;;;;5073974;28;20292;-83
2022/09/05 13:46:19;;;;;;;3.00;1.70;;;;;;;;;;5073734;28;20670;-83
2022/09/05 13:48:52;;;;;;;2.75;1.63;;;;;;;;;;5074249;28;20238;-83
2022/09/05 13:51:39;;;;;;;2.08;1.63;;;;;;;;;;5073588;28;20681;-83
2022/09/05 13:54:24;;;;;;;2.38;1.38;;;;;;;;;;5073495;28;20237;-83
2022/09/05 13:56:54;;;;;;;3.75;1.60;;;;;;;;;;5073872;28;20205;-83
2022/09/05 13:59:23;;;;;;;2.53;1.67;;;;;;;;;;5073373;28;20242;-83
2022/09/05 14:02:02;;;;;;;2.80;1.80;;;;;;;;;;5073737;28;20209;-82
2022/09/05 14:04:50;;;;;;;2.70;1.75;;;;;;;;;;5073899;28;20305;-83
2022/09/05 14:07:29;;;;;;;2.13;1.90;;;;;;;;;;5069014;28;20628;-83
2022/09/05 14:10:15;;;;;;;2.58;2.05;;;;;;;;;;5073849;28;20302;-83
2022/09/05 14:12:47;;;;;;;6.13;2.20;;;;;;;;;;5073393;28;20195;-83
2022/09/05 14:15:24;;;;;;;4.05;2.25;;;;;;;;;;5072664;28;20290;-83
2022/09/05 14:18:04;;;;;;;3.25;2.33;;;;;;;;;;5073445;28;20253;-83
2022/09/05 14:23:23;;;;;;;2.72;2.22;;;;;;;;;;5071739;28;20202;-83
2022/09/05 14:25:52;;;;;;;4.10;2.10;;;;;;;;;;5073263;28;20735;-84
2022/09/05 14:28:22;;;;;;;2.60;2.17;;;;;;;;;;5071738;28;20230;-83
2022/09/05 14:30:51;;;;;;;4.78;2.10;;;;;;;;;;5053371;28;20287;-83
2022/09/05 14:33:29;;;;;;;4.40;2.60;;;;;;;;;;5053250;28;20231;-83
2022/09/05 14:36:00;;;;;;;4.57;2.50;;;;;;;;;;5053409;28;20199;-83
2022/09/05 14:38:41;;;;;;;5.72;2.78;;;;;;;;;;5053321;28;20231;-83
2022/09/05 14:41:32;;;;;;;3.53;2.45;;;;;;;;;;5056638;28;20278;-83
2022/09/05 14:44:23;;;;;;;4.30;2.40;;;;;;;;;;5072815;28;20203;-83
2022/09/05 14:46:58;;;;;;;5.13;2.50;;;;;;;;;;5058153;28;20269;-83
2022/09/05 14:49:39;;;;;;;4.43;2.42;;;;;;;;;;5072765;28;20199;-82
2022/09/05 14:52:18;;;;;;;4.30;2.70;;;;;;;;;;5072898;28;20252;-83
2022/09/05 14:54:51;;;;;;;4.30;2.50;;;;;;;;;;5072512;28;20256;-83
2022/09/05 14:57:20;;;;;;;3.00;2.20;;;;;;;;;;5055029;28;20223;-83
2022/09/05 14:59:49;;;;;;;3.33;2.53;;;;;;;;;;5071345;28;20278;-82
2022/09/05 15:02:22;;;;;;;4.95;3.00;;;;;;;;;;5063693;28;20290;-83
2022/09/05 15:04:53;;;;;;;3.65;2.80;;;;;;;;;;5071913;28;20282;-83
2022/09/05 15:07:23;;;;;;;8.07;3.17;;;;;;;;;;5071814;28;20226;-83
2022/09/05 15:10:06;;;;;;;5.93;3.20;;;;;;;;;;5072369;28;20709;-83
2022/09/05 15:12:34;;;;;;;3.75;2.83;;;;;;;;;;5071967;28;20629;-83
2022/09/05 15:15:14;;;;;;;4.78;2.85;;;;;;;;;;5072767;28;20278;-83
2022/09/05 15:17:45;;;;;;;3.38;2.90;;;;;;;;;;5072149;28;20620;-82
2022/09/05 15:20:27;;;;;;;3.92;2.80;;;;;;;;;;5072453;28;20627;-83
2022/09/05 15:22:54;;;;;;;5.80;4.60;;;;;;;;;;5072309;28;20290;-83
2022/09/05 15:25:22;;;;;;;6.85;3.30;;;;;;;;;;5073906;28;20693;-83